Time;durP1;ratioP1;P1;durP2;ratioP2;P2;SDS_P1;SDS_P2;PMS_P1;PMS_P2;Temp;Humidity;BMP_temperature;BMP_pressure;BME280_temperature;BME280_humidity;BME280_pressure;Samples;Min_cycle;Max_cycle;Signal;HPM_P1;HPM_P2
2024/02/17 00:01:52;;;;;;;26.67;14.20;;;;;;;-5.47;68.35;100424.59;4992838;28;20038;-60
2024/02/17 00:04:18;;;;;;;34.00;16.17;;;;;;;-5.48;68.76;100431.50;5007769;28;20133;-59
2024/02/17 00:06:44;;;;;;;26.75;14.77;;;;;;;-5.49;69.50;100432.44;4992486;28;20420;-60
2024/02/17 00:09:09;;;;;;;27.73;14.63;;;;;;;-5.51;68.68;100426.53;4991397;28;20062;-61
2024/02/17 00:11:35;;;;;;;30.20;15.18;;;;;;;-5.45;68.78;100435.63;4992284;28;20428;-61
2024/02/17 00:14:01;;;;;;;30.77;14.65;;;;;;;-5.37;69.07;100432.50;4992403;28;20101;-60
2024/02/17 00:16:27;;;;;;;26.60;13.75;;;;;;;-5.23;69.48;100431.53;4991787;28;20502;-62
2024/02/17 00:18:53;;;;;;;32.20;15.13;;;;;;;-5.14;68.94;100418.75;4975293;28;20062;-60
2024/02/17 00:21:18;;;;;;;31.48;15.40;;;;;;;-5.11;68.35;100418.53;4991432;28;20042;-60
2024/02/17 00:23:44;;;;;;;25.95;13.85;;;;;;;-5.24;67.95;100415.16;4991251;28;20070;-60
2024/02/17 00:26:10;;;;;;;30.50;15.13;;;;;;;-5.22;68.59;100426.22;4992368;28;20050;-61
2024/02/17 00:28:36;;;;;;;27.67;14.38;;;;;;;-5.13;69.15;100425.56;4991167;28;20419;-61
2024/02/17 00:31:01;;;;;;;28.52;14.18;;;;;;;-5.03;68.48;100417.97;4992055;28;20061;-61
2024/02/17 00:33:27;;;;;;;24.25;13.50;;;;;;;-4.92;67.81;100412.81;4992570;28;20046;-58
2024/02/17 00:35:52;;;;;;;27.80;14.73;;;;;;;-4.94;68.28;100411.28;4992116;28;20069;-60
2024/02/17 00:38:19;;;;;;;28.50;13.75;;;;;;;-5.01;67.35;100405.75;4992366;28;20050;-60
2024/02/17 00:40:48;;;;;;;28.08;14.30;;;;;;;-4.96;68.17;100411.41;4991157;28;20092;-61
2024/02/17 00:43:15;;;;;;;36.40;14.50;;;;;;;-5.00;68.69;100403.97;4975316;28;20050;-60
2024/02/17 00:45:43;;;;;;;26.38;13.85;;;;;;;-5.03;68.50;100408.47;5007076;28;20562;-60
2024/02/17 00:48:09;;;;;;;27.15;13.38;;;;;;;-5.03;67.38;100402.44;4990976;28;20053;-59
2024/02/17 00:50:35;;;;;;;28.50;14.73;;;;;;;-5.12;68.01;100403.13;4990675;28;20046;-60
2024/02/17 00:53:01;;;;;;;29.27;14.88;;;;;;;-5.18;68.87;100400.97;4990807;28;20459;-60
2024/02/17 00:55:26;;;;;;;28.27;14.20;;;;;;;-5.21;69.07;100399.44;4992057;28;20035;-60
2024/02/17 00:57:52;;;;;;;28.75;14.43;;;;;;;-5.12;69.13;100393.59;4991919;28;20112;-59
2024/02/17 01:00:17;;;;;;;29.88;13.82;;;;;;;-5.15;69.07;100386.06;4992002;28;20508;-61
2024/02/17 01:02:43;;;;;;;30.17;15.07;;;;;;;-5.13;69.24;100384.19;4991204;28;20125;-58
2024/02/17 01:05:09;;;;;;;29.88;14.10;;;;;;;-5.13;68.45;100388.56;4991995;28;20504;-60
2024/02/17 01:07:34;;;;;;;29.70;15.85;;;;;;;-5.09;69.13;100379.63;4991957;28;20475;-59
2024/02/17 01:10:00;;;;;;;23.67;13.88;;;;;;;-5.07;68.96;100382.94;4991663;28;20050;-59
2024/02/17 01:12:25;;;;;;;24.48;13.57;;;;;;;-4.99;68.50;100380.63;4990589;28;20550;-58
2024/02/17 01:14:51;;;;;;;33.28;15.88;;;;;;;-4.97;68.44;100375.31;4990588;28;20050;-61
2024/02/17 01:17:17;;;;;;;26.88;13.77;;;;;;;-4.99;68.02;100369.44;4991837;28;20107;-60
2024/02/17 01:19:43;;;;;;;27.80;13.73;;;;;;;-4.99;68.53;100356.53;4990433;28;20038;-61
2024/02/17 01:22:08;;;;;;;29.85;15.90;;;;;;;-5.05;68.73;100360.38;4990405;28;20050;-59
2024/02/17 01:24:35;;;;;;;30.63;15.00;;;;;;;-5.08;68.50;100365.78;4991855;28;20038;-60
2024/02/17 01:27:00;;;;;;;33.08;15.18;;;;;;;-5.11;68.95;100353.09;4992091;28;20048;-58
2024/02/17 01:29:26;;;;;;;37.45;16.33;;;;;;;-5.08;69.51;100340.75;4995653;28;20030;-61
2024/02/17 01:31:53;;;;;;;26.55;14.23;;;;;;;-5.02;68.98;100344.66;4995239;28;20630;-60
2024/02/17 01:34:20;;;;;;;27.92;15.77;;;;;;;-5.04;69.42;100341.34;4995775;28;20058;-61
2024/02/17 01:36:45;;;;;;;29.00;14.63;;;;;;;-5.02;69.09;100345.47;4993918;28;20061;-60
2024/02/17 01:39:11;;;;;;;29.88;15.38;;;;;;;-5.00;68.84;100339.34;4995358;28;20512;-60
2024/02/17 01:41:37;;;;;;;29.60;14.75;;;;;;;-4.99;68.39;100339.25;4994144;28;20044;-60
2024/02/17 01:44:03;;;;;;;31.83;14.68;;;;;;;-5.02;69.11;100336.88;4995763;28;20463;-58
2024/02/17 01:46:29;;;;;;;28.10;14.13;;;;;;;-5.10;68.57;100336.63;4993982;28;20054;-58
2024/02/17 01:48:55;;;;;;;28.52;15.70;;;;;;;-4.99;69.65;100333.25;4995550;28;20066;-60
2024/02/17 01:51:21;;;;;;;33.53;15.50;;;;;;;-4.87;68.77;100333.16;4994971;28;20671;-58
2024/02/17 01:53:48;;;;;;;28.77;14.73;;;;;;;-4.90;69.09;100322.22;4995181;28;20563;-60
2024/02/17 01:56:15;;;;;;;31.15;14.75;;;;;;;-4.88;69.58;100318.59;4993792;28;20050;-60
2024/02/17 01:58:41;;;;;;;31.10;15.48;;;;;;;-4.97;69.02;100318.44;4977906;28;20117;-57
2024/02/17 02:01:07;;;;;;;26.55;14.75;;;;;;;-5.04;68.89;100320.66;4994925;28;20504;-60
2024/02/17 02:03:32;;;;;;;29.42;15.02;;;;;;;-4.98;69.04;100316.78;4995242;28;20101;-60
2024/02/17 02:05:58;;;;;;;32.97;16.33;;;;;;;-5.06;69.08;100315.63;5009926;28;20495;-60
2024/02/17 02:08:24;;;;;;;33.60;15.55;;;;;;;-5.02;68.95;100308.44;4993637;28;20046;-59
2024/02/17 02:10:51;;;;;;;27.85;14.32;;;;;;;-5.06;68.95;100307.00;4975154;28;20504;-59
2024/02/17 02:13:16;;;;;;;27.40;14.68;;;;;;;-4.96;69.57;100309.75;4975638;28;20046;-59
2024/02/17 02:15:43;;;;;;;31.95;15.23;;;;;;;-5.06;68.50;100310.44;4975199;28;20536;-59
2024/02/17 02:18:10;;;;;;;28.92;15.40;;;;;;;-5.05;69.75;100313.84;4975084;28;20039;-58
2024/02/17 02:20:38;;;;;;;28.55;14.05;;;;;;;-5.01;69.05;100310.09;4975038;28;20097;-60
2024/02/17 02:23:04;;;;;;;29.17;14.55;;;;;;;-5.14;69.39;100311.94;4957941;28;20039;-59
2024/02/17 02:25:32;;;;;;;32.17;14.32;;;;;;;-5.28;70.37;100306.03;4973828;28;20054;-61
2024/02/17 02:27:57;;;;;;;31.63;15.60;;;;;;;-5.09;69.99;100308.09;4957661;28;20051;-59
2024/02/17 02:30:23;;;;;;;32.00;16.20;;;;;;;-5.04;70.26;100305.13;4970359;28;20058;-60
2024/02/17 02:32:50;;;;;;;31.30;15.60;;;;;;;-4.96;70.12;100302.00;4955697;28;20470;-59
2024/02/17 02:35:15;;;;;;;29.63;14.50;;;;;;;-4.83;70.62;100297.53;4955628;28;20059;-61
2024/02/17 02:37:41;;;;;;;34.17;15.80;;;;;;;-4.70;69.81;100308.59;4955662;28;20130;-59
2024/02/17 02:40:07;;;;;;;30.10;14.98;;;;;;;-4.63;69.21;100306.38;4954446;28;20058;-61
2024/02/17 02:42:33;;;;;;;29.75;15.13;;;;;;;-4.51;69.56;100297.66;4955496;28;20054;-60
2024/02/17 02:44:58;;;;;;;31.83;15.65;;;;;;;-4.59;68.66;100305.19;4955701;28;20114;-61
2024/02/17 02:47:24;;;;;;;30.98;14.73;;;;;;;-4.62;67.95;100295.06;4955418;28;20074;-59
2024/02/17 02:49:50;;;;;;;30.58;15.77;;;;;;;-4.68;68.72;100293.78;4955682;28;20082;-62
2024/02/17 02:52:16;;;;;;;29.60;15.73;;;;;;;-4.70;68.94;100290.50;4955241;28;20437;-59
2024/02/17 02:54:42;;;;;;;33.88;14.90;;;;;;;-4.70;67.99;100293.09;4970154;28;20059;-61
2024/02/17 02:57:08;;;;;;;31.13;15.43;;;;;;;-4.74;68.91;100289.06;4955322;28;20043;-60
2024/02/17 02:59:34;;;;;;;30.35;15.27;;;;;;;-4.76;68.76;100295.28;4955140;28;20043;-58
2024/02/17 03:02:00;;;;;;;33.40;15.63;;;;;;;-4.72;69.08;100287.19;4955293;28;20058;-59
2024/02/17 03:04:27;;;;;;;26.75;15.60;;;;;;;-4.68;68.74;100291.19;4974086;28;20043;-61
2024/02/17 03:06:55;;;;;;;26.07;13.40;;;;;;;-4.75;68.64;100290.00;4955671;28;20065;-60
2024/02/17 03:09:21;;;;;;;30.02;14.35;;;;;;;-4.75;69.22;100290.00;4977321;28;20401;-59
2024/02/17 03:11:48;;;;;;;26.42;14.07;;;;;;;-4.83;69.14;100277.66;4993262;28;20051;-60
2024/02/17 03:14:15;;;;;;;26.23;14.18;;;;;;;-4.83;69.40;100277.66;4993669;28;20515;-60
2024/02/17 03:16:41;;;;;;;31.77;16.08;;;;;;;-4.82;69.00;100263.81;4992190;28;20523;-59
2024/02/17 03:19:07;;;;;;;31.02;15.20;;;;;;;-4.71;69.74;100259.56;4993503;28;20061;-60
2024/02/17 03:21:33;;;;;;;23.08;13.88;;;;;;;-4.84;69.19;100254.50;4970799;28;20440;-61
2024/02/17 03:23:58;;;;;;;29.98;16.98;;;;;;;-4.85;70.20;100253.69;4988550;28;20506;-58
2024/02/17 03:26:24;;;;;;;29.58;14.95;;;;;;;-4.87;69.44;100245.22;4992179;28;20038;-61
2024/02/17 03:28:50;;;;;;;29.90;14.93;;;;;;;-4.91;69.81;100248.13;4993673;28;20050;-59
2024/02/17 03:31:15;;;;;;;28.70;15.07;;;;;;;-4.96;69.25;100247.69;4993270;28;20058;-59
2024/02/17 03:33:41;;;;;;;33.00;15.52;;;;;;;-5.07;69.79;100243.31;4993620;28;20383;-60
2024/02/17 03:36:07;;;;;;;26.75;15.48;;;;;;;-4.97;70.47;100239.13;4992284;28;20561;-60
2024/02/17 03:38:33;;;;;;;32.38;15.48;;;;;;;-4.76;70.47;100236.66;4991613;28;20385;-60
2024/02/17 03:40:58;;;;;;;28.17;14.20;;;;;;;-4.63;69.97;100232.16;4993021;28;20058;-61
2024/02/17 03:43:25;;;;;;;30.30;15.43;;;;;;;-4.52;69.80;100239.09;4991903;28;20500;-58
2024/02/17 03:45:51;;;;;;;29.77;15.07;;;;;;;-4.52;68.51;100235.69;4992949;28;20112;-60
2024/02/17 03:48:17;;;;;;;38.83;16.27;;;;;;;-4.55;69.64;100226.41;5008043;28;20459;-60
2024/02/17 03:50:42;;;;;;;32.05;15.23;;;;;;;-4.59;69.43;100222.38;4992833;28;20054;-60
2024/02/17 03:53:09;;;;;;;30.75;16.10;;;;;;;-4.55;70.27;100217.81;4993094;28;20389;-60
2024/02/17 03:55:34;;;;;;;29.00;15.50;;;;;;;-4.44;69.31;100215.19;4992858;28;20069;-59
2024/02/17 03:58:00;;;;;;;28.73;15.65;;;;;;;-4.32;70.13;100214.25;4991587;28;20081;-60
2024/02/17 04:00:26;;;;;;;31.08;14.93;;;;;;;-4.34;69.20;100213.53;4993020;28;20133;-62
2024/02/17 04:02:51;;;;;;;34.30;15.80;;;;;;;-4.31;69.93;100209.88;4992834;28;20096;-59
2024/02/17 04:05:17;;;;;;;30.92;14.25;;;;;;;-4.24;68.99;100205.84;4992684;28;20042;-60
2024/02/17 04:07:43;;;;;;;32.85;16.38;;;;;;;-4.32;68.11;100206.47;4992685;28;20396;-60
2024/02/17 04:10:09;;;;;;;36.15;14.90;;;;;;;-4.30;68.67;100198.56;4992588;28;20149;-60
2024/02/17 04:12:40;;;;;;;30.13;15.52;;;;;;;-4.38;68.69;100191.44;4991261;28;20499;-60
2024/02/17 04:15:06;;;;;;;31.73;14.93;;;;;;;-4.44;69.02;100182.38;5007768;28;20050;-61
2024/02/17 04:17:32;;;;;;;28.90;14.27;;;;;;;-4.55;69.13;100179.81;4991336;28;20451;-60
2024/02/17 04:19:57;;;;;;;30.73;15.02;;;;;;;-4.71;69.77;100184.53;4992676;28;20042;-60
2024/02/17 04:22:25;;;;;;;26.35;15.13;;;;;;;-4.64;70.56;100180.53;4991078;28;20054;-58
2024/02/17 04:24:51;;;;;;;33.67;16.85;;;;;;;-4.61;71.21;100183.72;4992227;28;20101;-59
2024/02/17 04:27:16;;;;;;;28.50;15.70;;;;;;;-4.53;70.53;100169.34;4991047;28;20046;-55
2024/02/17 04:29:42;;;;;;;29.60;15.18;;;;;;;-4.54;68.94;100173.69;4992052;28;20044;-60
2024/02/17 04:32:08;;;;;;;25.45;14.13;;;;;;;-4.46;68.89;100173.91;4991292;28;20065;-60
2024/02/17 04:34:35;;;;;;;31.60;16.35;;;;;;;-4.45;69.68;100177.31;4992790;28;20077;-61
2024/02/17 04:37:03;;;;;;;27.58;14.20;;;;;;;-4.40;68.90;100172.59;4991421;28;20143;-60
2024/02/17 04:39:28;;;;;;;25.15;14.02;;;;;;;-4.39;68.86;100171.66;4993338;28;20508;-61
2024/02/17 04:41:54;;;;;;;32.67;15.63;;;;;;;-4.26;70.69;100171.53;4991077;28;20050;-59
2024/02/17 04:44:20;;;;;;;28.17;14.25;;;;;;;-4.22;69.18;100168.53;4993024;28;20428;-60
2024/02/17 04:46:46;;;;;;;34.70;15.88;;;;;;;-4.23;69.75;100161.75;5007138;28;20527;-60
2024/02/17 04:49:12;;;;;;;30.80;15.05;;;;;;;-4.13;68.98;100156.63;4974844;28;20474;-59
2024/02/17 04:51:38;;;;;;;31.40;14.27;;;;;;;-4.09;68.96;100158.00;4992326;28;20054;-61
2024/02/17 04:54:04;;;;;;;28.33;15.32;;;;;;;-4.06;69.00;100155.19;4992503;28;20504;-60
2024/02/17 04:56:29;;;;;;;28.85;14.75;;;;;;;-3.97;69.28;100151.00;4991911;28;20508;-62
2024/02/17 04:58:55;;;;;;;33.38;15.15;;;;;;;-3.97;68.58;100151.88;4992229;28;20042;-60
2024/02/17 05:01:22;;;;;;;24.95;14.15;;;;;;;-4.04;69.29;100145.53;4991978;28;20451;-58
2024/02/17 05:03:52;;;;;;;26.65;14.55;;;;;;;-3.89;69.35;100146.84;4994088;28;20046;-56
2024/02/17 05:06:18;;;;;;;24.60;14.65;;;;;;;-3.77;68.96;100136.44;4996024;28;20041;-61
2024/02/17 05:08:45;;;;;;;27.52;14.63;;;;;;;-3.76;67.52;100135.50;4992993;28;20038;-61
2024/02/17 05:11:12;;;;;;;29.10;15.25;;;;;;;-3.84;67.95;100132.72;4975034;28;20046;-60
2024/02/17 05:13:38;;;;;;;30.75;15.15;;;;;;;-3.82;69.23;100130.81;4988134;28;20400;-60
2024/02/17 05:16:06;;;;;;;31.52;14.85;;;;;;;-3.84;68.18;100130.13;4993606;28;20042;-62
2024/02/17 05:18:32;;;;;;;30.05;14.95;;;;;;;-3.82;68.01;100125.63;4993331;28;20054;-61
2024/02/17 05:20:57;;;;;;;27.20;14.82;;;;;;;-3.75;69.28;100127.59;4993415;28;20038;-61
2024/02/17 05:23:23;;;;;;;26.98;14.95;;;;;;;-3.54;69.05;100122.38;4989562;28;20498;-60
2024/02/17 05:25:49;;;;;;;25.83;14.13;;;;;;;-3.62;67.41;100126.56;4991837;28;20493;-61
2024/02/17 05:28:15;;;;;;;37.28;15.35;;;;;;;-3.71;67.30;100112.59;4993042;28;20058;-59
2024/02/17 05:30:41;;;;;;;32.42;14.75;;;;;;;-3.66;68.00;100123.41;4993161;28;20050;-62
2024/02/17 05:33:07;;;;;;;31.85;14.77;;;;;;;-3.79;68.93;100126.22;4995386;28;20031;-61
2024/02/17 05:35:33;;;;;;;26.58;13.35;;;;;;;-3.59;67.98;100128.91;5010650;28;20045;-61
2024/02/17 05:37:59;;;;;;;24.88;13.98;;;;;;;-3.73;67.00;100111.94;4995088;28;20053;-60
2024/02/17 05:40:24;;;;;;;25.08;14.32;;;;;;;-3.45;67.23;100121.59;4990058;28;20046;-60
2024/02/17 05:42:50;;;;;;;31.13;13.88;;;;;;;-3.28;67.47;100124.56;4990962;28;20135;-61
2024/02/17 05:45:16;;;;;;;27.75;14.48;;;;;;;-3.30;66.42;100126.47;4991309;28;20050;-60
2024/02/17 05:47:42;;;;;;;27.88;14.25;;;;;;;-3.22;67.15;100126.63;4994563;28;20062;-58
2024/02/17 05:50:07;;;;;;;30.48;14.95;;;;;;;-3.13;67.00;100125.03;4994528;28;20046;-62
2024/02/17 05:52:33;;;;;;;29.92;15.38;;;;;;;-3.00;66.21;100123.84;5009452;28;20137;-61
2024/02/17 05:54:59;;;;;;;27.40;14.05;;;;;;;-3.17;65.04;100121.06;4990977;28;20408;-63
2024/02/17 05:57:24;;;;;;;27.88;14.27;;;;;;;-3.00;67.67;100120.41;4993105;28;20094;-61
2024/02/17 05:59:51;;;;;;;31.20;14.52;;;;;;;-3.14;66.48;100113.03;4994678;28;20054;-60
2024/02/17 06:02:16;;;;;;;28.40;13.63;;;;;;;-3.05;66.19;100123.44;4994564;28;20128;-61
2024/02/17 06:04:42;;;;;;;26.40;14.07;;;;;;;-3.02;66.01;100111.97;4993294;28;20542;-61
2024/02/17 06:07:08;;;;;;;26.15;14.10;;;;;;;-3.08;66.10;100110.72;4993118;28;20515;-60
2024/02/17 06:09:34;;;;;;;29.83;14.07;;;;;;;-3.24;66.34;100116.38;4992812;28;20406;-60
2024/02/17 06:12:00;;;;;;;26.70;13.65;;;;;;;-3.07;66.74;100114.13;4992967;28;20144;-59
2024/02/17 06:14:26;;;;;;;26.20;14.70;;;;;;;-2.99;65.17;100115.13;4994447;28;20129;-61
2024/02/17 06:16:52;;;;;;;29.75;14.10;;;;;;;-2.97;66.00;100105.44;4984232;28;20046;-60
2024/02/17 06:22:01;;;;;;;24.27;13.70;;;;;;;-2.61;64.82;100105.78;4974519;28;20074;-60
2024/02/17 06:24:27;;;;;;;25.05;13.20;;;;;;;-2.92;64.47;100099.84;4974189;28;20457;-67
2024/02/17 06:26:52;;;;;;;24.25;13.15;;;;;;;-2.80;64.90;100116.94;4974375;28;20133;-62
2024/02/17 06:29:18;;;;;;;27.73;13.75;;;;;;;-2.73;64.21;100103.44;4974529;28;20038;-68
2024/02/17 06:31:44;;;;;;;26.58;13.80;;;;;;;-2.73;65.16;100109.44;4974298;28;20493;-61
2024/02/17 06:34:11;;;;;;;28.45;14.80;;;;;;;-2.61;64.70;100099.78;4974985;28;20105;-69
2024/02/17 06:36:37;;;;;;;29.73;13.65;;;;;;;-2.51;64.61;100091.00;4981472;28;20104;-61
2024/02/17 06:39:03;;;;;;;30.13;14.05;;;;;;;-2.45;64.47;100092.25;4991641;28;20057;-65
2024/02/17 06:41:29;;;;;;;29.83;14.38;;;;;;;-2.56;64.26;100094.97;4992214;28;20042;-67
2024/02/17 06:43:55;;;;;;;27.85;13.25;;;;;;;-2.61;64.04;100095.41;4993814;28;20100;-63
2024/02/17 06:46:21;;;;;;;24.55;13.63;;;;;;;-2.45;64.89;100094.03;4993776;28;20409;-70
2024/02/17 06:48:50;;;;;;;27.17;13.70;;;;;;;-2.21;63.73;100097.03;4992494;28;20046;-68
2024/02/17 06:51:17;;;;;;;27.73;13.07;;;;;;;-2.08;64.01;100092.38;4993252;28;20050;-60
2024/02/17 06:53:43;;;;;;;25.40;13.85;;;;;;;-2.04;63.22;100092.09;4993140;28;20065;-61
2024/02/17 06:56:09;;;;;;;23.67;12.52;;;;;;;-2.09;63.33;100080.38;4993145;28;20124;-63
2024/02/17 06:58:35;;;;;;;28.02;14.57;;;;;;;-2.21;63.33;100083.22;4992219;28;20113;-59
2024/02/17 07:01:00;;;;;;;28.08;14.18;;;;;;;-1.96;63.87;100076.66;4993309;28;20100;-63
2024/02/17 07:03:26;;;;;;;27.65;14.00;;;;;;;-1.64;63.99;100068.50;4993135;28;20404;-61
2024/02/17 07:05:52;;;;;;;22.75;13.02;;;;;;;-1.66;62.22;100071.22;4991768;28;20048;-60
2024/02/17 07:08:17;;;;;;;23.45;13.80;;;;;;;-1.72;62.08;100069.19;4991256;28;20042;-59
2024/02/17 07:10:43;;;;;;;23.90;13.77;;;;;;;-1.86;62.32;100054.84;4991816;28;20062;-60
2024/02/17 07:13:12;;;;;;;25.20;12.80;;;;;;;-1.71;62.82;100054.41;4991601;28;20046;-60
2024/02/17 07:15:37;;;;;;;20.15;11.75;;;;;;;-1.85;62.28;100053.09;4992876;28;20050;-60
2024/02/17 07:18:03;;;;;;;25.17;13.50;;;;;;;-1.84;62.61;100037.34;4991471;28;20035;-57
2024/02/17 07:20:30;;;;;;;27.25;14.27;;;;;;;-1.90;62.80;100048.31;4993173;28;20046;-61
2024/02/17 07:23:00;;;;;;;26.13;14.05;;;;;;;-1.79;63.91;100021.34;4990863;28;20499;-59
2024/02/17 07:25:29;;;;;;;22.23;11.90;;;;;;;-1.63;61.93;100025.94;4992421;28;20129;-60
2024/02/17 07:27:58;;;;;;;28.75;13.52;;;;;;;-1.66;62.95;100024.44;4975455;28;20046;-60
2024/02/17 07:30:25;;;;;;;26.42;13.57;;;;;;;-1.37;63.36;100018.28;4992543;28;20076;-61
2024/02/17 07:32:54;;;;;;;24.92;12.60;;;;;;;-1.35;61.07;100015.53;4991194;28;20054;-61
2024/02/17 07:35:21;;;;;;;23.75;13.00;;;;;;;-1.34;61.47;100009.38;4992537;28;20054;-59
2024/02/17 07:37:47;;;;;;;21.00;12.45;;;;;;;-1.15;61.75;100004.91;4974272;28;20089;-60
2024/02/17 07:40:12;;;;;;;20.20;11.50;;;;;;;-1.20;61.66;100007.13;4991582;28;20054;-63
2024/02/17 07:42:38;;;;;;;27.58;13.13;;;;;;;-0.93;62.23;100005.44;4992512;28;20046;-61
2024/02/17 07:45:04;;;;;;;25.77;13.32;;;;;;;-0.82;60.38;99997.41;4992635;28;20125;-62
2024/02/17 07:47:33;;;;;;;23.88;12.68;;;;;;;-0.74;60.27;99994.84;4992095;28;20486;-60
2024/02/17 07:50:00;;;;;;;23.50;12.45;;;;;;;-0.70;60.42;99996.22;4991014;28;20137;-59
2024/02/17 07:52:25;;;;;;;23.88;12.75;;;;;;;-0.62;60.09;99989.44;4990595;28;20046;-60
2024/02/17 07:54:51;;;;;;;28.52;12.75;;;;;;;-0.55;60.71;99986.09;4992650;28;20049;-62
2024/02/17 07:57:17;;;;;;;25.52;12.88;;;;;;;-0.34;60.12;99977.13;4974602;28;20050;-61
2024/02/17 07:59:43;;;;;;;23.98;13.00;;;;;;;-0.54;60.36;99979.09;4992205;28;20516;-61
2024/02/17 08:02:09;;;;;;;21.90;12.88;;;;;;;-0.31;60.42;99974.22;4958715;28;20081;-60
2024/02/17 08:04:34;;;;;;;29.92;13.20;;;;;;;-0.17;60.20;99973.66;4992165;28;20076;-61
2024/02/17 08:07:00;;;;;;;24.00;12.57;;;;;;;-0.17;59.42;99959.81;4991877;28;20046;-62
2024/02/17 08:09:26;;;;;;;22.30;11.40;;;;;;;-0.48;59.16;99952.44;4992046;28;20512;-64
2024/02/17 08:11:54;;;;;;;25.02;12.40;;;;;;;-0.51;59.51;99957.94;4991859;28;20084;-61
2024/02/17 08:14:20;;;;;;;21.63;11.43;;;;;;;-0.59;60.09;99957.88;4992119;28;20508;-63
2024/02/17 08:16:47;;;;;;;22.13;11.60;;;;;;;-0.52;60.01;99958.94;4990427;28;20057;-64
2024/02/17 08:19:13;;;;;;;22.25;12.23;;;;;;;-0.81;60.51;99948.75;4992138;28;20050;-64
2024/02/17 08:21:39;;;;;;;22.90;12.18;;;;;;;-0.86;60.61;99943.19;4990103;28;20042;-64
2024/02/17 08:24:05;;;;;;;25.50;12.73;;;;;;;-1.00;60.96;99940.16;4991993;28;20104;-62
2024/02/17 08:26:34;;;;;;;28.67;13.50;;;;;;;-1.01;61.29;99935.91;4974262;28;20076;-62
2024/02/17 08:29:00;;;;;;;21.67;11.68;;;;;;;-1.06;61.06;99930.34;4992053;28;20465;-62
2024/02/17 08:31:26;;;;;;;21.70;12.65;;;;;;;-1.08;62.12;99926.25;4992001;28;20054;-64
2024/02/17 08:33:52;;;;;;;21.48;12.70;;;;;;;-1.19;61.54;99929.88;4958438;28;20042;-62
2024/02/17 08:36:19;;;;;;;23.35;12.25;;;;;;;-1.09;62.08;99932.41;4990968;28;20058;-64
2024/02/17 08:38:45;;;;;;;26.23;12.65;;;;;;;-1.08;62.02;99926.25;4989613;28;20177;-62
2024/02/17 08:41:11;;;;;;;26.00;12.32;;;;;;;-1.08;62.18;99931.47;4991633;28;20523;-64
2024/02/17 08:43:37;;;;;;;23.10;11.75;;;;;;;-1.17;62.55;99927.97;4991987;28;20050;-63
2024/02/17 08:46:03;;;;;;;28.90;12.50;;;;;;;-1.02;62.76;99923.88;4974041;28;20412;-64
2024/02/17 08:48:28;;;;;;;24.38;12.77;;;;;;;-0.97;62.15;99920.81;4990377;28;20121;-63
2024/02/17 08:50:54;;;;;;;21.42;11.68;;;;;;;-1.19;61.93;99916.88;4989666;28;20667;-62
2024/02/17 08:53:20;;;;;;;28.30;13.30;;;;;;;-1.02;61.86;99917.84;4989028;28;20508;-63
2024/02/17 08:55:45;;;;;;;20.30;11.25;;;;;;;-0.92;62.14;99910.75;4989488;28;20057;-61
2024/02/17 08:58:12;;;;;;;25.17;12.32;;;;;;;-0.82;61.85;99902.88;4989210;28;20125;-62
2024/02/17 09:00:38;;;;;;;25.45;12.30;;;;;;;-0.65;61.32;99903.81;4990565;28;20046;-63
2024/02/17 09:03:13;;;;;;;24.00;11.90;;;;;;;-0.58;61.60;99903.06;4993926;28;20038;-63
2024/02/17 09:05:44;;;;;;;25.63;12.43;;;;;;;-0.62;61.96;99900.91;4973465;28;20475;-62
2024/02/17 09:08:09;;;;;;;23.83;12.30;;;;;;;-0.39;61.68;99893.41;4988892;28;20062;-63
2024/02/17 09:10:35;;;;;;;27.48;11.63;;;;;;;-0.35;61.38;99902.56;4990041;28;20504;-64
2024/02/17 09:13:02;;;;;;;24.67;11.98;;;;;;;-0.26;60.92;99899.03;4990350;28;20130;-62
2024/02/17 09:15:28;;;;;;;23.80;11.13;;;;;;;-0.32;61.30;99892.63;4991495;28;20042;-64
2024/02/17 09:17:53;;;;;;;24.17;12.00;;;;;;;-0.34;61.00;99873.72;4991489;28;20050;-64
2024/02/17 09:20:19;;;;;;;31.40;13.25;;;;;;;-0.38;60.88;99884.59;4991564;28;20050;-64
2024/02/17 09:22:44;;;;;;;23.33;12.05;;;;;;;-0.22;61.02;99863.03;4990980;28;20125;-60
2024/02/17 09:25:10;;;;;;;21.73;11.82;;;;;;;-0.07;60.82;99864.09;4974087;28;20069;-62
2024/02/17 09:27:36;;;;;;;24.25;13.27;;;;;;;-0.23;61.48;99849.22;4989946;28;20526;-62
2024/02/17 09:30:04;;;;;;;25.50;13.93;;;;;;;-0.12;60.84;99848.94;4990101;28;20233;-61
2024/02/17 09:32:30;;;;;;;21.67;11.70;;;;;;;0.07;60.65;99850.47;4989911;28;20231;-62
2024/02/17 09:34:56;;;;;;;22.73;11.20;;;;;;;0.14;60.10;99843.63;5006373;28;20041;-64
2024/02/17 09:37:22;;;;;;;22.77;11.50;;;;;;;0.07;60.74;99832.22;4990471;28;20126;-62
2024/02/17 09:39:47;;;;;;;22.13;11.00;;;;;;;0.19;60.39;99830.94;4989739;28;20542;-62
2024/02/17 09:42:13;;;;;;;21.38;11.48;;;;;;;0.56;60.41;99834.09;4989239;28;20046;-60
2024/02/17 09:44:40;;;;;;;20.98;11.60;;;;;;;0.44;59.64;99839.63;4987473;28;20108;-60
2024/02/17 09:47:06;;;;;;;25.95;13.50;;;;;;;0.61;60.23;99816.97;4988831;28;20070;-62
2024/02/17 09:49:35;;;;;;;24.23;12.60;;;;;;;0.65;60.13;99827.94;4974373;28;20336;-63
2024/02/17 09:52:01;;;;;;;21.77;11.50;;;;;;;0.79;59.67;99818.63;4991597;28;20054;-62
2024/02/17 09:54:28;;;;;;;22.08;11.38;;;;;;;0.96;58.54;99830.69;5009335;28;20512;-63
2024/02/17 09:56:54;;;;;;;19.20;10.73;;;;;;;1.14;58.45;99839.13;4994467;28;20051;-62
2024/02/17 09:59:20;;;;;;;20.98;10.60;;;;;;;1.24;58.60;99843.41;4994519;28;20061;-62
2024/02/17 10:01:48;;;;;;;19.45;10.48;;;;;;;1.33;57.52;99826.72;4994464;28;20046;-60
2024/02/17 10:04:14;;;;;;;21.67;10.98;;;;;;;1.19;58.23;99830.00;4994836;28;20108;-61
2024/02/17 10:06:40;;;;;;;20.83;11.35;;;;;;;1.26;58.44;99828.34;4976385;28;20050;-62
2024/02/17 10:09:06;;;;;;;18.85;10.75;;;;;;;1.33;58.36;99824.13;4971491;28;20080;-63
2024/02/17 10:11:32;;;;;;;21.77;10.05;;;;;;;1.33;58.96;99831.94;4993711;28;20169;-62
2024/02/17 10:14:00;;;;;;;19.83;10.30;;;;;;;1.77;58.56;99821.84;4993340;28;20490;-64
2024/02/17 10:16:31;;;;;;;16.67;9.30;;;;;;;1.69;57.90;99810.63;4993494;28;20104;-63
2024/02/17 10:18:58;;;;;;;19.65;10.02;;;;;;;1.66;58.23;99790.03;4992930;28;20045;-61
2024/02/17 10:21:24;;;;;;;19.45;9.07;;;;;;;1.58;58.48;99791.69;4993189;28;20054;-61
2024/02/17 10:23:51;;;;;;;15.55;7.90;;;;;;;1.53;59.82;99788.78;4993227;28;20050;-62
2024/02/17 10:26:17;;;;;;;13.02;7.82;;;;;;;1.53;59.08;99787.94;4994682;28;20053;-62
2024/02/17 10:28:42;;;;;;;23.27;10.30;;;;;;;1.77;59.80;99774.00;4993220;28;20034;-62
2024/02/17 10:31:08;;;;;;;13.63;7.78;;;;;;;1.80;59.88;99764.00;4994270;28;20081;-64
2024/02/17 10:33:37;;;;;;;15.60;7.85;;;;;;;1.79;58.83;99762.38;4993155;28;20038;-61
2024/02/17 10:36:04;;;;;;;17.02;7.60;;;;;;;2.04;58.97;99764.84;4993931;28;20050;-62
2024/02/17 10:38:30;;;;;;;19.38;8.68;;;;;;;2.34;58.53;99760.56;4993354;28;20097;-62
2024/02/17 10:40:55;;;;;;;16.08;8.18;;;;;;;2.60;57.31;99760.22;4994514;28;20492;-62
2024/02/17 10:43:21;;;;;;;17.05;7.88;;;;;;;2.63;56.84;99762.47;4994550;28;20078;-61
2024/02/17 10:45:52;;;;;;;19.02;10.20;;;;;;;2.50;57.01;99747.38;4993003;28;20050;-60
2024/02/17 10:48:17;;;;;;;;;;;;;;;2.37;57.49;99749.75;4994860;28;20047;-61
2024/02/17 10:50:45;;;;;;;15.07;7.53;;;;;;;2.73;56.93;99743.88;4993944;28;19932;-62
2024/02/17 10:53:29;;;;;;;12.00;7.38;;;;;;;2.91;56.39;99736.53;4977031;28;20137;-61
2024/02/17 10:55:55;;;;;;;15.02;6.97;;;;;;;2.68;56.14;99731.34;4993817;28;20042;-61
2024/02/17 10:58:21;;;;;;;14.15;6.60;;;;;;;2.56;57.00;99730.16;4992770;28;20042;-62
2024/02/17 11:00:51;;;;;;;12.90;7.30;;;;;;;2.46;58.17;99737.41;4992864;28;20046;-62
2024/02/17 11:03:28;;;;;;;21.17;10.25;;;;;;;2.44;57.89;99734.16;4992626;28;20469;-63
2024/02/17 11:05:58;;;;;;;19.20;7.85;;;;;;;2.40;57.87;99730.28;4992385;28;20132;-61
2024/02/17 11:08:24;;;;;;;14.40;7.87;;;;;;;2.47;58.13;99733.81;4993909;28;20050;-61
2024/02/17 11:10:50;;;;;;;13.93;6.90;;;;;;;2.43;57.47;99732.53;4993538;28;20157;-62
2024/02/17 11:13:24;;;;;;;13.73;7.82;;;;;;;2.24;57.89;99731.22;4993500;28;20046;-63